This is the latest recevied weather packets stored in our database for station/object NK2J. If no packets are shown the sender has not sent any weather packets the latest 10 day(s).
| Time | Temp. | Humidity | Pressure | Rain* | Wind** | Luminosity | Snow |
|---|---|---|---|---|---|---|---|
| 1778019416 | 25.56° C | 26% | 1011.6 hPa | 0 mm | - | 529 W/m² | - |
| 1778019112 | 25° C | 30% | 1011.6 hPa | 0 mm | - | 556 W/m² | - |
| 1778018809 | 25° C | 30% | 1011.7 hPa | 0 mm | - | 573 W/m² | - |
| 1778018507 | 24.44° C | 30% | 1011.7 hPa | 0 mm | - | 614 W/m² | - |
| 1778018205 | 25° C | 29% | 1011.7 hPa | 0 mm | - | 596 W/m² | - |
| 1778017902 | 25° C | 30% | 1011.7 hPa | 0 mm | - | 609 W/m² | - |
| 1778017600 | 24.44° C | 30% | 1011.9 hPa | 0 mm | - | 646 W/m² | - |
| 1778017297 | 25° C | 31% | 1011.8 hPa | 0 mm | - | 152 W/m² | - |
| 1778016995 | 25° C | 31% | 1011.8 hPa | 0 mm | - | 727 W/m² | - |
| 1778016691 | 24.44° C | 32% | 1011.9 hPa | 0 mm | - | 413 W/m² | - |
| 1778016387 | 23.89° C | 32% | 1011.8 hPa | 0 mm | - | 201 W/m² | - |
| 1778016085 | 23.33° C | 33% | 1011.9 hPa | 0 mm | - | 156 W/m² | - |
| 1778015782 | 23.89° C | 33% | 1012.3 hPa | 0 mm | - | 743 W/m² | - |
| 1778015479 | 25° C | 32% | 1012.2 hPa | 0 mm | - | 588 W/m² | - |
| 1778015176 | 24.44° C | 32% | 1012.3 hPa | 0 mm | - | 692 W/m² | - |
| 1778014872 | 23.89° C | 33% | 1012.5 hPa | 0 mm | - | 814 W/m² | - |
| 1778014570 | 23.33° C | 34% | 1012.4 hPa | 0 mm | - | 216 W/m² | - |
| 1778014268 | 23.33° C | 36% | 1012.5 hPa | 0 mm | - | 207 W/m² | - |
| 1778013965 | 23.33° C | 37% | 1012.6 hPa | 0 mm | - | 887 W/m² | - |
| 1778013662 | 23.33° C | 37% | 1012.5 hPa | 0 mm | - | 220 W/m² | - |
| 1778013358 | 23.33° C | 37% | 1012.6 hPa | 0 mm | - | 257 W/m² | - |
| 1778013056 | 22.78° C | 38% | 1012.7 hPa | 0 mm | - | 223 W/m² | - |
| 1778012751 | 22.78° C | 38% | 1012.6 hPa | 0 mm | - | 191 W/m² | - |
| 1778012448 | 23.33° C | 38% | 1012.6 hPa | 0 mm | - | 246 W/m² | - |
| 1778012144 | 23.89° C | 38% | 1012.6 hPa | 0 mm | - | 891 W/m² | - |
* Rain latest hour (hover to see other rain measurements)
** Current wind speed in m/s (hover to see current wind gust speed)